sensor_id;sensor_type;location;lat;lon;timestamp;temperature;humidity
3298;DHT22;1661;53.572;10.174;2022-11-20T00:01:16;3.80;79.60
3298;DHT22;1661;53.572;10.174;2022-11-20T00:03:44;3.70;79.70
3298;DHT22;1661;53.572;10.174;2022-11-20T00:06:13;3.70;79.80
3298;DHT22;1661;53.572;10.174;2022-11-20T00:08:40;3.70;80.10
3298;DHT22;1661;53.572;10.174;2022-11-20T00:11:09;3.70;80.20
3298;DHT22;1661;53.572;10.174;2022-11-20T00:13:38;3.80;80.30
3298;DHT22;1661;53.572;10.174;2022-11-20T00:16:06;3.70;80.10
3298;DHT22;1661;53.572;10.174;2022-11-20T00:18:34;3.70;80.20
3298;DHT22;1661;53.572;10.174;2022-11-20T00:21:01;3.70;80.10
3298;DHT22;1661;53.572;10.174;2022-11-20T00:23:28;3.70;80.30
3298;DHT22;1661;53.572;10.174;2022-11-20T00:25:55;3.70;80.50
3298;DHT22;1661;53.572;10.174;2022-11-20T00:28:22;3.70;80.40
3298;DHT22;1661;53.572;10.174;2022-11-20T00:30:50;3.70;80.30
3298;DHT22;1661;53.572;10.174;2022-11-20T00:33:18;3.60;80.60
3298;DHT22;1661;53.572;10.174;2022-11-20T00:35:45;3.60;80.80
3298;DHT22;1661;53.572;10.174;2022-11-20T00:38:12;3.60;80.90
3298;DHT22;1661;53.572;10.174;2022-11-20T00:40:38;3.60;80.80
3298;DHT22;1661;53.572;10.174;2022-11-20T00:43:05;3.60;80.90
3298;DHT22;1661;53.572;10.174;2022-11-20T00:45:32;3.50;81.00
3298;DHT22;1661;53.572;10.174;2022-11-20T00:48:00;3.60;81.40
3298;DHT22;1661;53.572;10.174;2022-11-20T00:50:27;3.60;81.30
3298;DHT22;1661;53.572;10.174;2022-11-20T00:52:54;3.60;81.10
3298;DHT22;1661;53.572;10.174;2022-11-20T00:55:21;3.70;80.90
3298;DHT22;1661;53.572;10.174;2022-11-20T00:57:47;3.70;81.10
3298;DHT22;1661;53.572;10.174;2022-11-20T01:00:15;3.70;81.00
3298;DHT22;1661;53.572;10.174;2022-11-20T01:02:42;3.70;81.20
3298;DHT22;1661;53.572;10.174;2022-11-20T01:05:10;3.60;81.30
3298;DHT22;1661;53.572;10.174;2022-11-20T01:07:37;3.70;81.40
3298;DHT22;1661;53.572;10.174;2022-11-20T01:10:05;3.60;81.70
3298;DHT22;1661;53.572;10.174;2022-11-20T01:12:32;3.70;81.90
3298;DHT22;1661;53.572;10.174;2022-11-20T01:14:59;3.70;81.80
3298;DHT22;1661;53.572;10.174;2022-11-20T01:17:27;3.80;81.60
3298;DHT22;1661;53.572;10.174;2022-11-20T01:19:54;3.80;81.50
3298;DHT22;1661;53.572;10.174;2022-11-20T01:22:22;3.80;81.50
3298;DHT22;1661;53.572;10.174;2022-11-20T01:24:49;3.80;81.30
3298;DHT22;1661;53.572;10.174;2022-11-20T01:27:16;3.80;81.50
3298;DHT22;1661;53.572;10.174;2022-11-20T01:29:42;3.80;81.60
3298;DHT22;1661;53.572;10.174;2022-11-20T01:32:09;3.80;81.60
3298;DHT22;1661;53.572;10.174;2022-11-20T01:34:36;3.80;81.40
3298;DHT22;1661;53.572;10.174;2022-11-20T01:37:03;3.60;81.80
3298;DHT22;1661;53.572;10.174;2022-11-20T01:39:31;3.60;82.00
3298;DHT22;1661;53.572;10.174;2022-11-20T01:41:58;3.70;82.30
3298;DHT22;1661;53.572;10.174;2022-11-20T01:44:49;3.70;82.20
3298;DHT22;1661;53.572;10.174;2022-11-20T01:47:20;3.50;82.50
3298;DHT22;1661;53.572;10.174;2022-11-20T01:49:50;3.50;82.70
3298;DHT22;1661;53.572;10.174;2022-11-20T01:52:21;3.60;82.80
3298;DHT22;1661;53.572;10.174;2022-11-20T01:54:53;3.60;82.80
3298;DHT22;1661;53.572;10.174;2022-11-20T01:57:24;3.60;83.00
3298;DHT22;1661;53.572;10.174;2022-11-20T01:59:55;3.60;83.10
3298;DHT22;1661;53.572;10.174;2022-11-20T02:02:22;3.70;83.10
3298;DHT22;1661;53.572;10.174;2022-11-20T02:04:51;3.70;82.90
3298;DHT22;1661;53.572;10.174;2022-11-20T02:07:21;3.70;83.10
3298;DHT22;1661;53.572;10.174;2022-11-20T02:09:50;3.70;83.20
3298;DHT22;1661;53.572;10.174;2022-11-20T02:12:18;3.70;83.00
3298;DHT22;1661;53.572;10.174;2022-11-20T02:14:58;3.70;83.10
3298;DHT22;1661;53.572;10.174;2022-11-20T02:17:25;3.60;83.20
3298;DHT22;1661;53.572;10.174;2022-11-20T02:19:52;3.70;83.30
3298;DHT22;1661;53.572;10.174;2022-11-20T02:22:24;3.50;83.40
3298;DHT22;1661;53.572;10.174;2022-11-20T02:24:56;3.50;83.70
3298;DHT22;1661;53.572;10.174;2022-11-20T02:27:25;3.40;84.10
3298;DHT22;1661;53.572;10.174;2022-11-20T02:29:55;3.50;84.20
3298;DHT22;1661;53.572;10.174;2022-11-20T02:32:26;3.40;84.30
3298;DHT22;1661;53.572;10.174;2022-11-20T02:34:53;3.30;84.60
3298;DHT22;1661;53.572;10.174;2022-11-20T02:37:20;3.20;85.30
3298;DHT22;1661;53.572;10.174;2022-11-20T02:39:49;3.20;85.50
3298;DHT22;1661;53.572;10.174;2022-11-20T02:42:18;3.20;85.50
3298;DHT22;1661;53.572;10.174;2022-11-20T02:44:45;3.20;85.70
3298;DHT22;1661;53.572;10.174;2022-11-20T02:47:12;3.30;85.50
3298;DHT22;1661;53.572;10.174;2022-11-20T02:49:38;3.40;85.50
3298;DHT22;1661;53.572;10.174;2022-11-20T02:52:05;3.50;85.30
3298;DHT22;1661;53.572;10.174;2022-11-20T02:54:32;3.50;85.10
3298;DHT22;1661;53.572;10.174;2022-11-20T02:56:59;3.40;85.00
3298;DHT22;1661;53.572;10.174;2022-11-20T02:59:27;3.50;85.00
3298;DHT22;1661;53.572;10.174;2022-11-20T03:01:54;3.50;84.90
3298;DHT22;1661;53.572;10.174;2022-11-20T03:04:21;3.50;84.70
3298;DHT22;1661;53.572;10.174;2022-11-20T03:06:48;3.50;84.60
3298;DHT22;1661;53.572;10.174;2022-11-20T03:09:14;3.50;84.70
3298;DHT22;1661;53.572;10.174;2022-11-20T03:11:41;3.50;84.60
3298;DHT22;1661;53.572;10.174;2022-11-20T03:14:08;3.60;84.50
3298;DHT22;1661;53.572;10.174;2022-11-20T03:16:36;3.50;84.40
3298;DHT22;1661;53.572;10.174;2022-11-20T03:19:03;3.50;84.30
3298;DHT22;1661;53.572;10.174;2022-11-20T03:21:30;3.50;84.30
3298;DHT22;1661;53.572;10.174;2022-11-20T03:23:57;3.60;84.30
3298;DHT22;1661;53.572;10.174;2022-11-20T03:26:25;3.60;84.20
3298;DHT22;1661;53.572;10.174;2022-11-20T03:28:54;3.60;84.20
3298;DHT22;1661;53.572;10.174;2022-11-20T03:31:22;3.50;84.10
3298;DHT22;1661;53.572;10.174;2022-11-20T03:33:51;3.60;84.10
3298;DHT22;1661;53.572;10.174;2022-11-20T03:36:19;3.60;84.10
3298;DHT22;1661;53.572;10.174;2022-11-20T03:38:46;3.60;84.00
3298;DHT22;1661;53.572;10.174;2022-11-20T03:41:15;3.60;84.00
3298;DHT22;1661;53.572;10.174;2022-11-20T03:43:47;3.70;84.00
3298;DHT22;1661;53.572;10.174;2022-11-20T03:46:16;3.60;83.90
3298;DHT22;1661;53.572;10.174;2022-11-20T03:48:43;3.70;83.70
3298;DHT22;1661;53.572;10.174;2022-11-20T03:51:13;3.60;83.60
3298;DHT22;1661;53.572;10.174;2022-11-20T03:53:42;3.50;83.60
3298;DHT22;1661;53.572;10.174;2022-11-20T03:56:10;3.50;84.00
3298;DHT22;1661;53.572;10.174;2022-11-20T03:58:38;3.50;84.10
3298;DHT22;1661;53.572;10.174;2022-11-20T04:01:06;3.40;84.10
3298;DHT22;1661;53.572;10.174;2022-11-20T04:03:34;3.30;84.40
3298;DHT22;1661;53.572;10.174;2022-11-20T04:06:03;3.30;84.50
3298;DHT22;1661;53.572;10.174;2022-11-20T04:08:31;3.20;84.70
3298;DHT22;1661;53.572;10.174;2022-11-20T04:11:08;3.20;85.00
3298;DHT22;1661;53.572;10.174;2022-11-20T04:13:35;3.30;85.00
3298;DHT22;1661;53.572;10.174;2022-11-20T04:16:02;3.40;84.60
3298;DHT22;1661;53.572;10.174;2022-11-20T04:18:29;3.40;84.40
3298;DHT22;1661;53.572;10.174;2022-11-20T04:20:56;3.40;84.20
3298;DHT22;1661;53.572;10.174;2022-11-20T04:23:23;3.40;84.20
3298;DHT22;1661;53.572;10.174;2022-11-20T04:25:52;3.50;84.10
3298;DHT22;1661;53.572;10.174;2022-11-20T04:28:19;3.50;84.10
3298;DHT22;1661;53.572;10.174;2022-11-20T04:30:46;3.60;84.00
3298;DHT22;1661;53.572;10.174;2022-11-20T04:33:12;3.60;83.90
3298;DHT22;1661;53.572;10.174;2022-11-20T04:35:39;3.60;83.60
3298;DHT22;1661;53.572;10.174;2022-11-20T04:38:06;3.60;83.60
3298;DHT22;1661;53.572;10.174;2022-11-20T04:40:33;3.70;83.50
3298;DHT22;1661;53.572;10.174;2022-11-20T04:43:01;3.70;83.40
3298;DHT22;1661;53.572;10.174;2022-11-20T04:45:28;3.70;83.30
3298;DHT22;1661;53.572;10.174;2022-11-20T04:47:55;3.70;83.10
3298;DHT22;1661;53.572;10.174;2022-11-20T04:50:21;3.70;83.20
3298;DHT22;1661;53.572;10.174;2022-11-20T04:52:48;3.80;83.10
3298;DHT22;1661;53.572;10.174;2022-11-20T04:55:15;3.70;83.00
3298;DHT22;1661;53.572;10.174;2022-11-20T04:57:42;3.80;82.90
3298;DHT22;1661;53.572;10.174;2022-11-20T05:00:11;3.80;82.80
3298;DHT22;1661;53.572;10.174;2022-11-20T05:02:38;3.80;82.90
3298;DHT22;1661;53.572;10.174;2022-11-20T05:05:06;3.80;82.80
3298;DHT22;1661;53.572;10.174;2022-11-20T05:07:32;3.80;82.70
3298;DHT22;1661;53.572;10.174;2022-11-20T05:09:59;3.70;82.60
3298;DHT22;1661;53.572;10.174;2022-11-20T05:12:26;3.70;82.80
3298;DHT22;1661;53.572;10.174;2022-11-20T05:14:54;3.70;82.80
3298;DHT22;1661;53.572;10.174;2022-11-20T05:17:22;3.60;82.90
3298;DHT22;1661;53.572;10.174;2022-11-20T05:19:49;3.60;82.90
3298;DHT22;1661;53.572;10.174;2022-11-20T05:22:16;3.60;82.90
3298;DHT22;1661;53.572;10.174;2022-11-20T05:24:42;3.70;83.00
3298;DHT22;1661;53.572;10.174;2022-11-20T05:27:09;3.60;83.10
3298;DHT22;1661;53.572;10.174;2022-11-20T05:29:36;3.60;83.10
3298;DHT22;1661;53.572;10.174;2022-11-20T05:32:03;3.60;83.10
3298;DHT22;1661;53.572;10.174;2022-11-20T05:34:32;3.60;83.10
3298;DHT22;1661;53.572;10.174;2022-11-20T05:36:59;3.60;83.10
3298;DHT22;1661;53.572;10.174;2022-11-20T05:39:26;3.70;83.10
3298;DHT22;1661;53.572;10.174;2022-11-20T05:41:53;3.70;83.20
3298;DHT22;1661;53.572;10.174;2022-11-20T05:44:34;3.60;83.10
3298;DHT22;1661;53.572;10.174;2022-11-20T05:47:00;3.50;83.10
3298;DHT22;1661;53.572;10.174;2022-11-20T05:49:27;3.50;83.20
3298;DHT22;1661;53.572;10.174;2022-11-20T05:51:55;3.60;83.30
3298;DHT22;1661;53.572;10.174;2022-11-20T05:54:22;3.60;83.30
3298;DHT22;1661;53.572;10.174;2022-11-20T05:56:49;3.60;83.30
3298;DHT22;1661;53.572;10.174;2022-11-20T05:59:16;3.60;83.20
3298;DHT22;1661;53.572;10.174;2022-11-20T06:01:43;3.70;83.30
3298;DHT22;1661;53.572;10.174;2022-11-20T06:04:10;3.70;83.20
3298;DHT22;1661;53.572;10.174;2022-11-20T06:06:37;3.70;83.20
3298;DHT22;1661;53.572;10.174;2022-11-20T06:09:05;3.70;83.10
3298;DHT22;1661;53.572;10.174;2022-11-20T06:11:32;3.60;83.20
3298;DHT22;1661;53.572;10.174;2022-11-20T06:13:59;3.60;83.30
3298;DHT22;1661;53.572;10.174;2022-11-20T06:16:26;3.60;83.40
3298;DHT22;1661;53.572;10.174;2022-11-20T06:18:53;3.70;83.40
3298;DHT22;1661;53.572;10.174;2022-11-20T06:21:21;3.70;83.40
3298;DHT22;1661;53.572;10.174;2022-11-20T06:23:49;3.60;83.50
3298;DHT22;1661;53.572;10.174;2022-11-20T06:26:19;3.60;83.50
3298;DHT22;1661;53.572;10.174;2022-11-20T06:28:47;3.50;83.60
3298;DHT22;1661;53.572;10.174;2022-11-20T06:31:15;3.50;83.90
3298;DHT22;1661;53.572;10.174;2022-11-20T06:33:43;3.50;84.00
3298;DHT22;1661;53.572;10.174;2022-11-20T06:36:11;3.50;84.00
3298;DHT22;1661;53.572;10.174;2022-11-20T06:38:38;3.60;83.90
3298;DHT22;1661;53.572;10.174;2022-11-20T06:41:05;3.60;83.70
3298;DHT22;1661;53.572;10.174;2022-11-20T06:43:33;3.60;84.00
3298;DHT22;1661;53.572;10.174;2022-11-20T06:46:00;3.60;83.90
3298;DHT22;1661;53.572;10.174;2022-11-20T06:48:28;3.50;83.90
3298;DHT22;1661;53.572;10.174;2022-11-20T06:50:56;3.50;84.10
3298;DHT22;1661;53.572;10.174;2022-11-20T06:53:24;3.50;84.20
3298;DHT22;1661;53.572;10.174;2022-11-20T06:55:52;3.60;84.20
3298;DHT22;1661;53.572;10.174;2022-11-20T06:58:19;3.60;84.10
3298;DHT22;1661;53.572;10.174;2022-11-20T07:00:47;3.40;84.20
3298;DHT22;1661;53.572;10.174;2022-11-20T07:03:14;3.40;84.50
3298;DHT22;1661;53.572;10.174;2022-11-20T07:05:41;3.40;84.50
3298;DHT22;1661;53.572;10.174;2022-11-20T07:08:08;3.40;84.40
3298;DHT22;1661;53.572;10.174;2022-11-20T07:10:35;3.30;84.30
3298;DHT22;1661;53.572;10.174;2022-11-20T07:13:02;3.40;84.40
3298;DHT22;1661;53.572;10.174;2022-11-20T07:15:29;3.40;84.40
3298;DHT22;1661;53.572;10.174;2022-11-20T07:18:00;3.50;84.30
3298;DHT22;1661;53.572;10.174;2022-11-20T07:20:27;3.50;84.20
3298;DHT22;1661;53.572;10.174;2022-11-20T07:22:54;3.50;84.00
3298;DHT22;1661;53.572;10.174;2022-11-20T07:25:21;3.40;83.90
3298;DHT22;1661;53.572;10.174;2022-11-20T07:27:48;3.30;84.50
3298;DHT22;1661;53.572;10.174;2022-11-20T07:30:15;3.20;84.90
3298;DHT22;1661;53.572;10.174;2022-11-20T07:32:42;3.00;85.50
3298;DHT22;1661;53.572;10.174;2022-11-20T07:35:10;3.10;85.70
3298;DHT22;1661;53.572;10.174;2022-11-20T07:37:37;3.10;85.80
3298;DHT22;1661;53.572;10.174;2022-11-20T07:40:05;3.10;85.50
3298;DHT22;1661;53.572;10.174;2022-11-20T07:42:32;3.20;85.30
3298;DHT22;1661;53.572;10.174;2022-11-20T07:44:58;3.20;85.00
3298;DHT22;1661;53.572;10.174;2022-11-20T07:47:25;3.30;84.90
3298;DHT22;1661;53.572;10.174;2022-11-20T07:49:52;3.30;84.90
3298;DHT22;1661;53.572;10.174;2022-11-20T07:52:20;3.40;84.70
3298;DHT22;1661;53.572;10.174;2022-11-20T07:54:47;3.40;84.50
3298;DHT22;1661;53.572;10.174;2022-11-20T07:57:14;3.40;84.30
3298;DHT22;1661;53.572;10.174;2022-11-20T07:59:41;3.40;84.00
3298;DHT22;1661;53.572;10.174;2022-11-20T08:02:10;3.40;83.80
3298;DHT22;1661;53.572;10.174;2022-11-20T08:04:37;3.30;83.70
3298;DHT22;1661;53.572;10.174;2022-11-20T08:07:03;3.40;83.70
3298;DHT22;1661;53.572;10.174;2022-11-20T08:09:32;3.40;83.80
3298;DHT22;1661;53.572;10.174;2022-11-20T08:11:59;3.50;83.70
3298;DHT22;1661;53.572;10.174;2022-11-20T08:14:43;3.60;83.70
3298;DHT22;1661;53.572;10.174;2022-11-20T08:17:10;3.50;83.10
3298;DHT22;1661;53.572;10.174;2022-11-20T08:19:36;3.40;83.50
3298;DHT22;1661;53.572;10.174;2022-11-20T08:22:03;3.50;83.70
3298;DHT22;1661;53.572;10.174;2022-11-20T08:24:31;3.50;83.30
3298;DHT22;1661;53.572;10.174;2022-11-20T08:26:59;3.50;83.40
3298;DHT22;1661;53.572;10.174;2022-11-20T08:29:26;3.60;83.30
3298;DHT22;1661;53.572;10.174;2022-11-20T08:31:53;3.60;83.00
3298;DHT22;1661;53.572;10.174;2022-11-20T08:34:20;3.50;83.00
3298;DHT22;1661;53.572;10.174;2022-11-20T08:36:46;3.50;83.10
3298;DHT22;1661;53.572;10.174;2022-11-20T08:39:14;3.50;83.20
3298;DHT22;1661;53.572;10.174;2022-11-20T08:41:42;3.50;83.40
3298;DHT22;1661;53.572;10.174;2022-11-20T08:44:09;3.60;83.50
3298;DHT22;1661;53.572;10.174;2022-11-20T08:46:37;3.60;83.40
3298;DHT22;1661;53.572;10.174;2022-11-20T08:49:07;3.60;83.40
3298;DHT22;1661;53.572;10.174;2022-11-20T08:51:35;3.70;83.70
3298;DHT22;1661;53.572;10.174;2022-11-20T08:54:02;3.60;83.60
3298;DHT22;1661;53.572;10.174;2022-11-20T08:56:29;3.70;83.50
3298;DHT22;1661;53.572;10.174;2022-11-20T08:58:58;3.60;83.60
3298;DHT22;1661;53.572;10.174;2022-11-20T09:01:26;3.70;83.70
3298;DHT22;1661;53.572;10.174;2022-11-20T09:03:56;3.60;83.90
3298;DHT22;1661;53.572;10.174;2022-11-20T09:06:23;3.50;84.30
3298;DHT22;1661;53.572;10.174;2022-11-20T09:08:52;3.50;84.50
3298;DHT22;1661;53.572;10.174;2022-11-20T09:11:18;3.60;84.60
3298;DHT22;1661;53.572;10.174;2022-11-20T09:13:45;3.70;84.60
3298;DHT22;1661;53.572;10.174;2022-11-20T09:16:13;3.70;84.50
3298;DHT22;1661;53.572;10.174;2022-11-20T09:18:40;3.70;84.50
3298;DHT22;1661;53.572;10.174;2022-11-20T09:21:10;3.80;84.50
3298;DHT22;1661;53.572;10.174;2022-11-20T09:23:38;3.80;84.40
3298;DHT22;1661;53.572;10.174;2022-11-20T09:26:10;3.90;84.20
3298;DHT22;1661;53.572;10.174;2022-11-20T09:28:37;3.90;84.40
3298;DHT22;1661;53.572;10.174;2022-11-20T09:31:05;4.00;84.60
3298;DHT22;1661;53.572;10.174;2022-11-20T09:33:34;4.00;84.40
3298;DHT22;1661;53.572;10.174;2022-11-20T09:36:01;4.00;84.30
3298;DHT22;1661;53.572;10.174;2022-11-20T09:38:28;4.10;84.50
3298;DHT22;1661;53.572;10.174;2022-11-20T09:40:57;4.10;84.70
3298;DHT22;1661;53.572;10.174;2022-11-20T09:43:32;4.20;84.80
3298;DHT22;1661;53.572;10.174;2022-11-20T09:46:08;4.20;84.30
3298;DHT22;1661;53.572;10.174;2022-11-20T09:48:56;4.10;84.50
3298;DHT22;1661;53.572;10.174;2022-11-20T09:51:36;4.20;84.60
3298;DHT22;1661;53.572;10.174;2022-11-20T09:54:16;4.30;84.00
3298;DHT22;1661;53.572;10.174;2022-11-20T09:56:46;4.00;83.90
3298;DHT22;1661;53.572;10.174;2022-11-20T09:59:26;4.00;84.50
3298;DHT22;1661;53.572;10.174;2022-11-20T10:01:55;4.00;84.60
3298;DHT22;1661;53.572;10.174;2022-11-20T10:04:25;4.10;85.10
3298;DHT22;1661;53.572;10.174;2022-11-20T10:07:02;3.90;84.40
3298;DHT22;1661;53.572;10.174;2022-11-20T10:09:32;3.70;85.80
3298;DHT22;1661;53.572;10.174;2022-11-20T10:12:09;3.70;85.80
3298;DHT22;1661;53.572;10.174;2022-11-20T10:14:47;3.80;85.70
3298;DHT22;1661;53.572;10.174;2022-11-20T10:17:22;3.90;85.30
3298;DHT22;1661;53.572;10.174;2022-11-20T10:20:02;4.00;84.70
3298;DHT22;1661;53.572;10.174;2022-11-20T10:22:53;4.10;84.80
3298;DHT22;1661;53.572;10.174;2022-11-20T10:25:28;4.20;84.50
3298;DHT22;1661;53.572;10.174;2022-11-20T10:28:18;4.30;83.90
3298;DHT22;1661;53.572;10.174;2022-11-20T10:30:56;4.30;83.70
3298;DHT22;1661;53.572;10.174;2022-11-20T10:33:25;4.20;83.00
3298;DHT22;1661;53.572;10.174;2022-11-20T10:36:01;4.20;83.30
3298;DHT22;1661;53.572;10.174;2022-11-20T10:38:35;4.00;83.40
3298;DHT22;1661;53.572;10.174;2022-11-20T10:41:05;3.80;84.40
3298;DHT22;1661;53.572;10.174;2022-11-20T10:43:53;3.80;84.90
3298;DHT22;1661;53.572;10.174;2022-11-20T10:46:24;3.90;85.20
3298;DHT22;1661;53.572;10.174;2022-11-20T10:48:52;4.00;84.70
3298;DHT22;1661;53.572;10.174;2022-11-20T10:51:31;4.00;84.40
3298;DHT22;1661;53.572;10.174;2022-11-20T10:54:13;4.00;84.10
3298;DHT22;1661;53.572;10.174;2022-11-20T10:56:47;3.80;84.60
3298;DHT22;1661;53.572;10.174;2022-11-20T10:59:35;3.80;85.30
3298;DHT22;1661;53.572;10.174;2022-11-20T11:02:15;3.80;84.80
3298;DHT22;1661;53.572;10.174;2022-11-20T11:04:45;3.50;83.90
3298;DHT22;1661;53.572;10.174;2022-11-20T11:07:18;3.50;84.70
3298;DHT22;1661;53.572;10.174;2022-11-20T11:09:48;3.70;84.70
3298;DHT22;1661;53.572;10.174;2022-11-20T11:12:15;3.60;84.30
3298;DHT22;1661;53.572;10.174;2022-11-20T11:14:46;3.70;84.40
3298;DHT22;1661;53.572;10.174;2022-11-20T11:17:25;3.60;84.30
3298;DHT22;1661;53.572;10.174;2022-11-20T11:19:59;3.60;84.40
3298;DHT22;1661;53.572;10.174;2022-11-20T11:22:28;3.70;84.40
3298;DHT22;1661;53.572;10.174;2022-11-20T11:24:56;3.90;83.80
3298;DHT22;1661;53.572;10.174;2022-11-20T11:27:23;3.90;82.50
3298;DHT22;1661;53.572;10.174;2022-11-20T11:29:50;3.90;83.00
3298;DHT22;1661;53.572;10.174;2022-11-20T11:32:27;4.00;82.80
3298;DHT22;1661;53.572;10.174;2022-11-20T11:35:01;4.10;82.70
3298;DHT22;1661;53.572;10.174;2022-11-20T11:37:33;4.10;82.20
3298;DHT22;1661;53.572;10.174;2022-11-20T11:40:01;4.20;82.20
3298;DHT22;1661;53.572;10.174;2022-11-20T11:42:28;4.30;81.80
3298;DHT22;1661;53.572;10.174;2022-11-20T11:44:58;4.40;81.60
3298;DHT22;1661;53.572;10.174;2022-11-20T11:47:32;4.50;81.30
3298;DHT22;1661;53.572;10.174;2022-11-20T11:50:13;4.50;80.80
3298;DHT22;1661;53.572;10.174;2022-11-20T11:52:46;4.20;80.00
3298;DHT22;1661;53.572;10.174;2022-11-20T11:55:17;4.10;79.60
3298;DHT22;1661;53.572;10.174;2022-11-20T11:57:54;3.80;80.20
3298;DHT22;1661;53.572;10.174;2022-11-20T12:00:23;3.60;80.90
3298;DHT22;1661;53.572;10.174;2022-11-20T12:02:58;3.60;82.00
3298;DHT22;1661;53.572;10.174;2022-11-20T12:05:29;3.80;82.40
3298;DHT22;1661;53.572;10.174;2022-11-20T12:08:01;3.80;81.40
3298;DHT22;1661;53.572;10.174;2022-11-20T12:10:40;3.80;80.40
3298;DHT22;1661;53.572;10.174;2022-11-20T12:13:17;3.90;80.30
3298;DHT22;1661;53.572;10.174;2022-11-20T12:15:46;4.00;80.70
3298;DHT22;1661;53.572;10.174;2022-11-20T12:18:16;4.10;80.80
3298;DHT22;1661;53.572;10.174;2022-11-20T12:20:48;4.20;80.50
3298;DHT22;1661;53.572;10.174;2022-11-20T12:23:27;4.40;80.30
3298;DHT22;1661;53.572;10.174;2022-11-20T12:25:57;4.40;80.00
3298;DHT22;1661;53.572;10.174;2022-11-20T12:28:44;4.50;79.70
3298;DHT22;1661;53.572;10.174;2022-11-20T12:31:29;4.50;79.00
3298;DHT22;1661;53.572;10.174;2022-11-20T12:34:16;4.60;79.20
3298;DHT22;1661;53.572;10.174;2022-11-20T12:36:54;4.70;79.10
3298;DHT22;1661;53.572;10.174;2022-11-20T12:39:34;4.80;78.30
3298;DHT22;1661;53.572;10.174;2022-11-20T12:42:17;4.80;78.50
3298;DHT22;1661;53.572;10.174;2022-11-20T12:48:19;4.70;77.60
3298;DHT22;1661;53.572;10.174;2022-11-20T12:50:54;4.70;77.90
3298;DHT22;1661;53.572;10.174;2022-11-20T12:53:29;4.80;78.10
3298;DHT22;1661;53.572;10.174;2022-11-20T12:56:05;4.80;78.30
3298;DHT22;1661;53.572;10.174;2022-11-20T12:58:43;4.90;78.00
3298;DHT22;1661;53.572;10.174;2022-11-20T13:01:22;5.00;77.80
3298;DHT22;1661;53.572;10.174;2022-11-20T13:04:10;4.90;77.50
3298;DHT22;1661;53.572;10.174;2022-11-20T13:06:41;4.90;77.30
3298;DHT22;1661;53.572;10.174;2022-11-20T13:09:10;5.10;78.40
3298;DHT22;1661;53.572;10.174;2022-11-20T13:11:44;5.30;78.60
3298;DHT22;1661;53.572;10.174;2022-11-20T13:14:24;5.30;75.80
3298;DHT22;1661;53.572;10.174;2022-11-20T13:16:58;5.50;75.90
3298;DHT22;1661;53.572;10.174;2022-11-20T13:19:27;5.70;76.20
3298;DHT22;1661;53.572;10.174;2022-11-20T13:21:55;5.80;73.50
3298;DHT22;1661;53.572;10.174;2022-11-20T13:24:24;5.90;73.40
3298;DHT22;1661;53.572;10.174;2022-11-20T13:27:19;6.00;72.60
3298;DHT22;1661;53.572;10.174;2022-11-20T13:29:58;6.10;73.10
3298;DHT22;1661;53.572;10.174;2022-11-20T13:32:26;6.10;71.90
3298;DHT22;1661;53.572;10.174;2022-11-20T13:34:58;6.10;71.70
3298;DHT22;1661;53.572;10.174;2022-11-20T13:37:28;6.20;71.60
3298;DHT22;1661;53.572;10.174;2022-11-20T13:40:11;6.20;71.70
3298;DHT22;1661;53.572;10.174;2022-11-20T13:42:43;6.20;71.90
3298;DHT22;1661;53.572;10.174;2022-11-20T13:45:22;6.20;72.00
3298;DHT22;1661;53.572;10.174;2022-11-20T13:47:50;6.20;72.50
3298;DHT22;1661;53.572;10.174;2022-11-20T13:50:17;6.20;72.30
3298;DHT22;1661;53.572;10.174;2022-11-20T13:52:51;6.00;72.00
3298;DHT22;1661;53.572;10.174;2022-11-20T13:55:25;6.00;72.50
3298;DHT22;1661;53.572;10.174;2022-11-20T13:58:12;6.00;72.80
3298;DHT22;1661;53.572;10.174;2022-11-20T14:00:58;6.00;73.00
3298;DHT22;1661;53.572;10.174;2022-11-20T14:03:29;6.00;73.00
3298;DHT22;1661;53.572;10.174;2022-11-20T14:06:01;6.00;73.00
3298;DHT22;1661;53.572;10.174;2022-11-20T14:08:37;6.00;73.30
3298;DHT22;1661;53.572;10.174;2022-11-20T14:11:11;6.00;73.30
3298;DHT22;1661;53.572;10.174;2022-11-20T14:13:55;6.00;73.00
3298;DHT22;1661;53.572;10.174;2022-11-20T14:16:23;5.90;73.50
3298;DHT22;1661;53.572;10.174;2022-11-20T14:18:50;5.90;73.30
3298;DHT22;1661;53.572;10.174;2022-11-20T14:21:25;5.80;73.50
3298;DHT22;1661;53.572;10.174;2022-11-20T14:24:03;5.80;73.90
3298;DHT22;1661;53.572;10.174;2022-11-20T14:26:30;5.80;73.80
3298;DHT22;1661;53.572;10.174;2022-11-20T14:28:59;5.80;74.00
3298;DHT22;1661;53.572;10.174;2022-11-20T14:31:27;5.80;74.30
3298;DHT22;1661;53.572;10.174;2022-11-20T14:33:55;5.80;74.00
3298;DHT22;1661;53.572;10.174;2022-11-20T14:36:25;5.80;74.00
3298;DHT22;1661;53.572;10.174;2022-11-20T14:38:53;5.60;73.70
3298;DHT22;1661;53.572;10.174;2022-11-20T14:41:22;5.50;74.50
3298;DHT22;1661;53.572;10.174;2022-11-20T14:43:52;5.50;74.60
3298;DHT22;1661;53.572;10.174;2022-11-20T14:46:22;5.50;75.10
3298;DHT22;1661;53.572;10.174;2022-11-20T14:48:51;5.50;75.30
3298;DHT22;1661;53.572;10.174;2022-11-20T14:51:31;5.50;75.90
3298;DHT22;1661;53.572;10.174;2022-11-20T14:54:09;5.20;75.50
3298;DHT22;1661;53.572;10.174;2022-11-20T14:56:36;5.10;76.30
3298;DHT22;1661;53.572;10.174;2022-11-20T14:59:03;5.00;76.70
3298;DHT22;1661;53.572;10.174;2022-11-20T15:01:33;4.90;76.20
3298;DHT22;1661;53.572;10.174;2022-11-20T15:04:04;4.70;76.40
3298;DHT22;1661;53.572;10.174;2022-11-20T15:06:31;4.60;77.20
3298;DHT22;1661;53.572;10.174;2022-11-20T15:08:58;4.70;77.80
3298;DHT22;1661;53.572;10.174;2022-11-20T15:11:34;4.80;77.60
3298;DHT22;1661;53.572;10.174;2022-11-20T15:14:04;4.90;77.40
3298;DHT22;1661;53.572;10.174;2022-11-20T15:16:33;5.00;77.10
3298;DHT22;1661;53.572;10.174;2022-11-20T15:19:00;4.90;76.30
3298;DHT22;1661;53.572;10.174;2022-11-20T15:21:28;4.90;76.10
3298;DHT22;1661;53.572;10.174;2022-11-20T15:23:55;4.90;76.70
3298;DHT22;1661;53.572;10.174;2022-11-20T15:26:25;4.90;76.40
3298;DHT22;1661;53.572;10.174;2022-11-20T15:28:54;4.90;76.60
3298;DHT22;1661;53.572;10.174;2022-11-20T15:31:23;4.90;76.20
3298;DHT22;1661;53.572;10.174;2022-11-20T15:33:51;4.90;76.10
3298;DHT22;1661;53.572;10.174;2022-11-20T15:36:18;4.90;76.20
3298;DHT22;1661;53.572;10.174;2022-11-20T15:38:45;4.90;76.60
3298;DHT22;1661;53.572;10.174;2022-11-20T15:41:11;5.00;76.80
3298;DHT22;1661;53.572;10.174;2022-11-20T15:43:38;5.00;76.80
3298;DHT22;1661;53.572;10.174;2022-11-20T15:46:06;5.00;76.80
3298;DHT22;1661;53.572;10.174;2022-11-20T15:48:38;5.00;76.30
3298;DHT22;1661;53.572;10.174;2022-11-20T15:51:15;5.00;75.80
3298;DHT22;1661;53.572;10.174;2022-11-20T15:53:44;5.00;76.10
3298;DHT22;1661;53.572;10.174;2022-11-20T15:56:12;5.00;76.10
3298;DHT22;1661;53.572;10.174;2022-11-20T15:58:40;5.00;76.00
3298;DHT22;1661;53.572;10.174;2022-11-20T16:01:10;5.00;76.40
3298;DHT22;1661;53.572;10.174;2022-11-20T16:03:36;5.00;77.10
3298;DHT22;1661;53.572;10.174;2022-11-20T16:06:07;4.90;76.10
3298;DHT22;1661;53.572;10.174;2022-11-20T16:08:34;4.90;76.30
3298;DHT22;1661;53.572;10.174;2022-11-20T16:11:01;4.90;76.60
3298;DHT22;1661;53.572;10.174;2022-11-20T16:13:31;4.90;76.70
3298;DHT22;1661;53.572;10.174;2022-11-20T16:16:20;4.90;76.60
3298;DHT22;1661;53.572;10.174;2022-11-20T16:18:47;4.90;76.40
3298;DHT22;1661;53.572;10.174;2022-11-20T16:21:16;4.80;76.10
3298;DHT22;1661;53.572;10.174;2022-11-20T16:23:43;4.70;76.40